Time;durP1;ratioP1;P1;durP2;ratioP2;P2;SDS_P1;SDS_P2;PMS_P1;PMS_P2;Temp;Humidity;BMP_temperature;BMP_pressure;BME280_temperature;BME280_humidity;BME280_pressure;Samples;Min_cycle;Max_cycle;Signal;HPM_P1;HPM_P2
2022/08/12 00:43:15;;;;;;;2.95;2.67;;;16.10;98.10;;;;;;6143738;23;20029;-83
2022/08/12 00:48:30;;;;;;;8.77;2.15;;;16.10;98.20;;;;;;6127758;23;20017;-82
2022/08/12 00:51:00;;;;;;;2.47;2.10;;;16.10;97.70;;;;;;6144966;23;20034;-83
2022/08/12 00:53:29;;;;;;;3.10;2.78;;;16.10;98.20;;;;;;6090935;23;20423;-83
2022/08/12 00:55:59;;;;;;;4.90;2.47;;;16.10;97.90;;;;;;6154997;23;20017;-82
2022/08/12 00:58:29;;;;;;;3.03;2.53;;;16.20;98.10;;;;;;6146358;23;20034;-84
2022/08/12 01:01:06;;;;;;;2.40;2.20;;;16.10;98.10;;;;;;6126738;23;20017;-83
2022/08/12 01:12:07;;;;;;;2.42;2.22;;;15.70;98.40;;;;;;6154358;23;20013;-83
2022/08/12 01:14:36;;;;;;;4.03;2.07;;;15.70;99.00;;;;;;6095898;23;20022;-83
2022/08/12 01:17:04;;;;;;;5.15;2.20;;;15.60;98.60;;;;;;6153318;23;20455;-83
2022/08/12 01:19:32;;;;;;;2.53;1.70;;;15.60;99.10;;;;;;6160609;23;20017;-83
2022/08/12 01:22:24;;;;;;;2.08;1.67;;;15.60;98.90;;;;;;6075913;23;20349;-83
2022/08/12 01:25:01;;;;;;;3.03;2.13;;;15.70;99.00;;;;;;6124081;23;20025;-84
2022/08/12 01:27:33;;;;;;;4.22;2.30;;;15.60;98.90;;;;;;6134567;23;20358;-84
2022/08/12 01:30:10;;;;;;;2.78;1.98;;;15.70;99.20;;;;;;6154005;23;20032;-83
2022/08/12 01:32:48;;;;;;;1.60;1.50;;;15.80;98.80;;;;;;6159657;23;20036;-83
2022/08/12 01:35:19;;;;;;;3.05;2.53;;;15.70;98.60;;;;;;6160687;23;20014;-83
2022/08/12 01:38:07;;;;;;;1.98;1.80;;;15.80;98.90;;;;;;6154925;23;20052;-83
2022/08/12 01:40:37;;;;;;;2.85;2.53;;;15.80;98.60;;;;;;6160664;23;20013;-83
2022/08/12 01:43:15;;;;;;;3.40;2.35;;;15.80;98.60;;;;;;6149786;23;20349;-83
2022/08/12 01:46:03;;;;;;;3.83;2.67;;;15.80;98.80;;;;;;6155963;23;20041;-83
2022/08/12 01:49:01;;;;;;;2.30;2.08;;;15.80;98.20;;;;;;6159963;23;20024;-83
2022/08/12 01:51:42;;;;;;;2.60;2.40;;;15.80;98.40;;;;;;6178707;23;20025;-83
2022/08/12 01:54:40;;;;;;;2.03;1.92;;;15.90;98.80;;;;;;6130857;23;20029;-83
2022/08/12 01:57:38;;;;;;;1.80;1.70;;;15.80;98.70;;;;;;6149375;23;20022;-84
2022/08/12 02:00:38;;;;;;;2.30;2.10;;;15.80;98.70;;;;;;6160354;23;20021;-84
2022/08/12 02:12:17;;;;;;;2.40;1.92;;;15.70;98.60;;;;;;6161218;23;20024;-83
2022/08/12 02:15:02;;;;;;;4.18;2.28;;;15.60;98.50;;;;;;6127516;23;20030;-83
2022/08/12 02:17:51;;;;;;;7.63;2.97;;;15.60;98.70;;;;;;6131211;23;20033;-84
2022/08/12 02:20:37;;;;;;;6.07;2.38;;;15.60;98.80;;;;;;6162066;23;20017;-84
2022/08/12 02:23:25;;;;;;;4.20;2.60;;;15.60;98.70;;;;;;6137661;23;20524;-83
2022/08/12 02:26:06;;;;;;;2.47;2.03;;;15.50;98.40;;;;;;6156058;23;20032;-81
2022/08/12 02:28:41;;;;;;;3.50;2.43;;;15.50;98.60;;;;;;6101630;23;20334;-83
2022/08/12 02:31:09;;;;;;;31.50;4.65;;;15.50;98.40;;;;;;6150639;23;20025;-82
2022/08/12 02:33:40;;;;;;;3.58;2.22;;;15.50;98.30;;;;;;6125064;23;20036;-82
2022/08/12 02:36:11;;;;;;;9.25;2.63;;;15.60;98.40;;;;;;6135313;23;20014;-82
2022/08/12 02:38:53;;;;;;;3.42;3.13;;;15.50;98.50;;;;;;6102301;23;20030;-82
2022/08/12 02:41:25;;;;;;;2.22;2.05;;;15.50;98.80;;;;;;6132321;23;20042;-83
2022/08/12 02:43:58;;;;;;;2.13;1.90;;;15.40;98.80;;;;;;6161715;23;20021;-82
2022/08/12 02:46:33;;;;;;;1.63;1.52;;;15.40;98.80;;;;;;6124949;23;20021;-82
2022/08/12 02:49:09;;;;;;;3.70;1.90;;;15.30;98.90;;;;;;6133047;23;20032;-82
2022/08/12 02:51:43;;;;;;;4.10;2.20;;;15.30;99.40;;;;;;6157825;23;20761;-81
2022/08/12 02:54:11;;;;;;;2.20;2.03;;;15.20;99.10;;;;;;6154058;23;20741;-82
2022/08/12 02:56:41;;;;;;;2.35;1.67;;;15.20;99.60;;;;;;6160983;23;20017;-81
2022/08/12 02:59:25;;;;;;;5.13;1.80;;;15.10;99.60;;;;;;6161114;23;20716;-82
2022/08/12 03:02:03;;;;;;;1.98;1.88;;;15.10;99.70;;;;;;6155572;23;20487;-82
2022/08/12 03:05:01;;;;;;;3.50;2.65;;;15.10;99.70;;;;;;6160796;23;20017;-81
2022/08/12 03:07:35;;;;;;;2.72;2.38;;;15.20;99.60;;;;;;6156402;23;20036;-82
2022/08/12 03:10:23;;;;;;;3.38;1.98;;;15.20;99.90;;;;;;6153789;23;20022;-81
2022/08/12 03:13:05;;;;;;;5.03;3.35;;;15.20;99.50;;;;;;6159900;23;20021;-82
2022/08/12 03:15:34;;;;;;;4.13;2.17;;;15.20;99.90;;;;;;6162259;23;20021;-83
2022/08/12 03:18:43;;;;;;;2.38;2.17;;;15.10;99.90;;;;;;6124505;23;20037;-81
2022/08/12 03:21:16;;;;;;;2.88;2.15;;;15.10;99.90;;;;;;6002993;23;20044;-82
2022/08/12 03:24:05;;;;;;;12.40;4.32;;;15.00;99.90;;;;;;6148574;23;20033;-81
2022/08/12 03:26:35;;;;;;;2.42;1.92;;;15.00;99.80;;;;;;6077638;23;20030;-82
2022/08/12 03:29:05;;;;;;;4.45;4.07;;;15.00;99.90;;;;;;6101132;23;20025;-81
2022/08/12 03:31:33;;;;;;;8.57;3.77;;;15.00;99.90;;;;;;6125950;23;20022;-81
2022/08/12 03:34:09;;;;;;;2.45;2.25;;;15.10;99.70;;;;;;6125794;23;20718;-82
2022/08/12 03:36:41;;;;;;;4.03;3.53;;;15.20;99.90;;;;;;6161885;23;20028;-81
2022/08/12 03:42:08;;;;;;;3.00;2.25;;;15.20;99.80;;;;;;6157284;23;20078;-82
2022/08/12 04:02:06;;;;;;;2.28;2.10;;;15.00;99.90;;;;;;6155375;23;20468;-82
2022/08/12 04:04:34;;;;;;;2.60;2.40;;;15.00;99.90;;;;;;6161717;23;20424;-82
2022/08/12 04:07:07;;;;;;;4.43;2.50;;;15.00;99.90;;;;;;6125254;23;20026;-81
2022/08/12 04:09:37;;;;;;;2.55;1.90;;;14.90;99.90;;;;;;6157492;23;20052;-82
2022/08/12 04:14:55;;;;;;;2.58;2.13;;;14.90;99.90;;;;;;6152143;23;20029;-82
2022/08/12 04:17:26;;;;;;;2.55;2.35;;;14.80;99.90;;;;;;6158360;23;20893;-81
2022/08/12 04:19:56;;;;;;;2.78;2.53;;;14.80;99.90;;;;;;6161345;23;20017;-82
2022/08/12 04:22:29;;;;;;;6.72;2.58;;;14.80;99.90;;;;;;6125256;23;20496;-81
2022/08/12 04:25:05;;;;;;;2.95;2.70;;;14.80;99.90;;;;;;6133144;23;20341;-81
2022/08/12 04:27:33;;;;;;;3.03;2.20;;;14.80;99.90;;;;;;6125142;23;20021;-82
2022/08/12 04:30:06;;;;;;;5.18;2.30;;;14.70;99.90;;;;;;6150723;23;20037;-81
2022/08/12 04:32:54;;;;;;;3.08;2.60;;;14.60;99.90;;;;;;6138143;23;20014;-81
2022/08/12 04:35:21;;;;;;;2.78;2.47;;;14.60;99.90;;;;;;6161726;23;20013;-81
2022/08/12 04:37:55;;;;;;;4.05;2.83;;;14.50;99.90;;;;;;6130158;23;20025;-82
2022/08/12 04:40:30;;;;;;;2.70;2.38;;;14.60;99.90;;;;;;6161207;23;20017;-81
2022/08/12 04:42:59;;;;;;;;;;;14.70;99.90;;;;;;6149890;23;20029;-81
2022/08/12 04:45:29;;;;;;;2.55;2.15;;;14.60;99.90;;;;;;6130863;23;19920;-81
2022/08/12 04:47:57;;;;;;;3.63;2.33;;;14.50;99.90;;;;;;6135510;23;20025;-81
2022/08/12 04:50:25;;;;;;;8.20;2.85;;;14.40;99.90;;;;;;6153685;23;20138;-81
2022/08/12 04:53:07;;;;;;;4.03;3.00;;;14.40;99.90;;;;;;6151405;23;20361;-81
2022/08/12 04:55:41;;;;;;;5.25;3.10;;;14.40;99.90;;;;;;6161035;23;20018;-82
2022/08/12 04:58:09;;;;;;;3.13;2.58;;;14.40;99.90;;;;;;6075740;23;20036;-82
2022/08/12 05:00:37;;;;;;;3.22;2.97;;;14.50;99.90;;;;;;6158859;23;20021;-80
2022/08/12 05:03:06;;;;;;;3.33;2.63;;;14.60;99.90;;;;;;6150270;23;20033;-81
2022/08/12 05:05:36;;;;;;;2.92;2.45;;;14.80;99.90;;;;;;6130769;23;20033;-81
2022/08/12 05:08:14;;;;;;;3.20;2.35;;;14.90;99.90;;;;;;6160533;23;20306;-80
2022/08/12 05:11:05;;;;;;;3.10;2.00;;;15.00;99.90;;;;;;6151398;23;20040;-81
2022/08/12 05:13:37;;;;;;;3.85;2.58;;;15.10;99.90;;;;;;6072573;23;20021;-82
2022/08/12 05:16:07;;;;;;;7.07;2.78;;;15.30;99.90;;;;;;6160264;23;20013;-80
2022/08/12 05:18:37;;;;;;;2.77;2.53;;;15.40;99.90;;;;;;6124613;23;20029;-80
2022/08/12 05:21:07;;;;;;;4.22;2.67;;;15.60;99.90;;;;;;6123403;23;20030;-82
2022/08/12 05:23:36;;;;;;;3.65;2.95;;;15.70;99.90;;;;;;6133387;23;20884;-82
2022/08/12 05:26:05;;;;;;;14.73;3.30;;;15.70;99.90;;;;;;6127261;23;20539;-81
2022/08/12 05:28:33;;;;;;;5.30;3.00;;;15.70;99.90;;;;;;6159365;23;20020;-81
2022/08/12 05:31:01;;;;;;;3.13;2.83;;;15.80;99.90;;;;;;6149947;23;20463;-81
2022/08/12 05:33:38;;;;;;;3.35;2.22;;;16.00;99.90;;;;;;6155905;23;20358;-82
2022/08/12 05:36:09;;;;;;;2.65;2.45;;;16.20;99.90;;;;;;6159964;23;20010;-81
2022/08/12 05:38:55;;;;;;;2.60;2.23;;;16.30;99.90;;;;;;6150793;23;20353;-82
2022/08/12 05:41:31;;;;;;;2.55;2.35;;;16.40;99.90;;;;;;6123745;23;20038;-82
2022/08/12 05:44:04;;;;;;;6.45;2.15;;;16.50;99.90;;;;;;6159550;23;20017;-82
2022/08/12 05:46:33;;;;;;;2.60;2.40;;;16.60;99.90;;;;;;6125162;23;20036;-81
2022/08/12 05:49:03;;;;;;;3.78;2.47;;;16.70;99.90;;;;;;6157626;23;20025;-82
2022/08/12 05:51:35;;;;;;;2.42;2.22;;;16.80;99.90;;;;;;6157683;23;20022;-81
2022/08/12 05:54:09;;;;;;;3.22;2.92;;;16.90;99.90;;;;;;6127696;23;20038;-82
2022/08/12 05:56:39;;;;;;;3.13;2.88;;;16.90;99.90;;;;;;6133714;23;20021;-82
2022/08/12 05:59:10;;;;;;;2.60;2.35;;;17.00;99.90;;;;;;6149012;23;20025;-81
2022/08/12 06:01:40;;;;;;;2.90;1.90;;;17.10;99.90;;;;;;6122956;23;20040;-81
2022/08/12 06:04:30;;;;;;;6.78;3.40;;;17.30;99.90;;;;;;6150759;23;20014;-81
2022/08/12 06:07:00;;;;;;;3.47;3.15;;;17.40;98.70;;;;;;6148704;23;20859;-81
2022/08/12 06:09:29;;;;;;;4.05;2.45;;;17.50;99.40;;;;;;6155071;23;20037;-82
2022/08/12 06:11:58;;;;;;;5.07;3.33;;;17.50;99.50;;;;;;6133616;23;20024;-81
2022/08/12 06:14:35;;;;;;;4.97;2.65;;;17.50;99.80;;;;;;6150980;23;20537;-82
2022/08/12 06:17:04;;;;;;;12.75;2.60;;;17.60;99.60;;;;;;6130527;23;20029;-79
2022/08/12 06:19:32;;;;;;;13.38;3.58;;;17.80;98.30;;;;;;6158734;23;20020;-81
2022/08/12 06:22:20;;;;;;;2.95;2.15;;;17.80;98.60;;;;;;6129291;23;20476;-79
2022/08/12 06:24:48;;;;;;;6.15;2.28;;;18.00;98.30;;;;;;6157611;23;20014;-81
2022/08/12 06:27:17;;;;;;;3.58;2.50;;;18.10;97.70;;;;;;6159520;23;20433;-81
2022/08/12 06:29:48;;;;;;;7.20;1.95;;;18.30;97.70;;;;;;6153545;23;20056;-81
2022/08/12 06:32:36;;;;;;;3.88;2.78;;;18.60;98.30;;;;;;6159346;23;20547;-81
2022/08/12 06:35:16;;;;;;;5.18;3.05;;;18.80;98.60;;;;;;6155372;23;20040;-81
2022/08/12 06:38:03;;;;;;;2.35;1.90;;;18.90;97.70;;;;;;6152371;23;20033;-81
2022/08/12 06:43:17;;;;;;;2.45;2.25;;;18.90;97.80;;;;;;6131806;23;20087;-80
2022/08/12 06:45:48;;;;;;;17.02;3.45;;;18.80;97.30;;;;;;6155288;23;20321;-79
2022/08/12 06:48:16;;;;;;;2.25;2.00;;;18.70;96.80;;;;;;6123234;23;20017;-80
2022/08/12 06:50:44;;;;;;;4.68;2.75;;;18.70;97.60;;;;;;6122667;23;20033;-80
2022/08/12 06:53:12;;;;;;;4.03;2.65;;;18.60;97.10;;;;;;6121913;23;20029;-78
2022/08/12 06:55:40;;;;;;;2.97;1.80;;;18.80;96.80;;;;;;6123478;23;20021;-81
2022/08/12 06:58:29;;;;;;;2.83;2.58;;;18.80;97.80;;;;;;6151100;23;20440;-80
2022/08/12 07:00:59;;;;;;;7.10;2.20;;;19.00;97.70;;;;;;6128831;23;20361;-80
2022/08/12 07:03:28;;;;;;;3.60;2.92;;;19.00;97.00;;;;;;6158720;23;20579;-80
2022/08/12 07:06:00;;;;;;;2.65;2.40;;;18.90;96.60;;;;;;6122443;23;20037;-81
2022/08/12 07:08:30;;;;;;;1.85;1.75;;;19.00;97.10;;;;;;6134251;23;20022;-79
2022/08/12 07:11:03;;;;;;;2.67;2.47;;;19.30;96.70;;;;;;6151224;23;20022;-81
2022/08/12 07:13:42;;;;;;;6.65;2.72;;;19.50;96.70;;;;;;6130632;23;20029;-81
2022/08/12 07:16:55;;;;;;;8.80;3.03;;;19.40;96.80;;;;;;6160767;23;20317;-80
2022/08/12 07:19:25;;;;;;;3.83;2.55;;;19.50;96.90;;;;;;6157140;23;20326;-81
2022/08/12 07:22:12;;;;;;;2.75;1.75;;;19.50;97.20;;;;;;6131628;23;20041;-81
2022/08/12 07:24:41;;;;;;;7.50;3.53;;;19.40;96.10;;;;;;6159520;23;20021;-80
2022/08/12 07:27:08;;;;;;;2.88;2.10;;;19.40;97.00;;;;;;6159679;23;20022;-81
2022/08/12 07:29:48;;;;;;;2.53;2.20;;;19.50;95.90;;;;;;6155121;23;20028;-81
2022/08/12 07:32:31;;;;;;;2.88;1.85;;;19.70;96.70;;;;;;6160289;23;20025;-79
2022/08/12 07:34:59;;;;;;;2.83;2.03;;;19.80;95.60;;;;;;6149590;23;20037;-80
2022/08/12 07:37:27;;;;;;;4.88;2.03;;;19.90;95.60;;;;;;6155054;23;20353;-81
2022/08/12 07:39:57;;;;;;;3.38;1.60;;;20.00;95.50;;;;;;6159449;23;20024;-80
2022/08/12 07:42:28;;;;;;;1.98;1.80;;;20.10;94.40;;;;;;6152476;23;20033;-79
2022/08/12 07:44:56;;;;;;;2.78;2.17;;;20.10;95.10;;;;;;6130806;23;20021;-81
2022/08/12 07:47:26;;;;;;;9.63;1.90;;;20.20;94.80;;;;;;6159189;23;20013;-78
2022/08/12 07:49:53;;;;;;;2.13;2.03;;;20.40;94.70;;;;;;6151919;23;20033;-78
2022/08/12 07:52:38;;;;;;;2.92;1.80;;;20.70;93.80;;;;;;6153303;23;20028;-79
2022/08/12 07:55:06;;;;;;;2.78;2.10;;;20.80;95.30;;;;;;6148960;23;20037;-79
2022/08/12 07:57:58;;;;;;;2.72;2.10;;;20.80;93.60;;;;;;6155178;23;20025;-76
2022/08/12 08:00:33;;;;;;;2.90;2.60;;;20.80;93.30;;;;;;6150753;23;20044;-77
2022/08/12 08:03:03;;;;;;;3.38;2.00;;;20.60;93.70;;;;;;6149567;23;20040;-79
2022/08/12 08:05:37;;;;;;;2.47;2.08;;;20.60;94.50;;;;;;6155726;23;20028;-78
2022/08/12 08:08:17;;;;;;;6.65;2.70;;;20.70;94.30;;;;;;6159154;23;20024;-78
2022/08/12 08:10:45;;;;;;;5.90;2.53;;;20.70;94.70;;;;;;6151262;23;20026;-77
2022/08/12 08:13:14;;;;;;;3.35;2.55;;;20.80;94.90;;;;;;6156255;23;20032;-82
2022/08/12 08:15:44;;;;;;;9.10;1.90;;;20.70;94.40;;;;;;6159859;23;20018;-81
2022/08/12 08:18:30;;;;;;;3.72;2.13;;;20.70;95.40;;;;;;6151648;23;20040;-80
2022/08/12 08:20:57;;;;;;;3.00;2.70;;;20.90;94.70;;;;;;6158187;23;20520;-80
2022/08/12 08:26:14;;;;;;;2.45;1.90;;;21.10;93.80;;;;;;6152428;23;20033;-80
2022/08/12 08:28:43;;;;;;;1.70;1.60;;;21.10;93.90;;;;;;6158986;23;20028;-80
2022/08/12 08:31:13;;;;;;;2.47;2.28;;;21.10;93.70;;;;;;6160143;23;20044;-80
2022/08/12 08:33:40;;;;;;;5.90;2.00;;;21.00;94.10;;;;;;6154238;23;20532;-80
2022/08/12 08:36:28;;;;;;;3.65;2.42;;;20.90;93.60;;;;;;6160147;23;20014;-80
2022/08/12 08:38:56;;;;;;;1.70;1.60;;;21.00;94.70;;;;;;6148885;23;20461;-80
2022/08/12 08:44:40;;;;;;;2.58;2.10;;;21.30;94.00;;;;;;6107476;23;20021;-79
2022/08/12 08:47:11;;;;;;;2.58;2.08;;;21.50;93.30;;;;;;6148909;23;20061;-79
2022/08/12 08:49:39;;;;;;;2.00;1.83;;;21.40;93.50;;;;;;6128271;23;20031;-81
2022/08/12 08:52:10;;;;;;;2.28;1.77;;;21.20;93.90;;;;;;6129102;23;20018;-80
2022/08/12 08:54:39;;;;;;;2.67;2.13;;;21.10;93.50;;;;;;6151039;23;20029;-81
2022/08/12 08:57:07;;;;;;;3.33;1.98;;;21.10;93.70;;;;;;6157475;23;20037;-80
2022/08/12 08:59:35;;;;;;;2.67;2.30;;;21.00;93.80;;;;;;6133287;23;20017;-79
2022/08/12 09:02:03;;;;;;;4.13;2.35;;;20.90;93.90;;;;;;6153354;23;20353;-83
2022/08/12 09:04:34;;;;;;;2.97;2.00;;;20.90;94.70;;;;;;6159808;23;20021;-81
2022/08/12 09:07:22;;;;;;;6.25;2.03;;;20.90;94.50;;;;;;6154857;23;20744;-79
2022/08/12 09:10:11;;;;;;;5.00;2.42;;;20.70;94.50;;;;;;6152132;23;20036;-81
2022/08/12 09:15:55;;;;;;;1.60;1.40;;;20.60;94.50;;;;;;6123945;23;20021;-81
2022/08/12 09:18:26;;;;;;;1.50;1.40;;;20.50;95.00;;;;;;6151560;23;20025;-81
2022/08/12 09:20:57;;;;;;;3.17;2.42;;;20.60;94.40;;;;;;6108996;23;20446;-82
2022/08/12 09:23:28;;;;;;;1.70;1.60;;;20.70;94.40;;;;;;6149406;23;20028;-82
2022/08/12 09:26:18;;;;;;;3.00;2.63;;;20.60;94.10;;;;;;6106647;23;20025;-83
2022/08/12 09:28:51;;;;;;;4.72;1.73;;;20.50;94.20;;;;;;6122520;23;20361;-80
2022/08/12 09:31:29;;;;;;;8.00;2.83;;;20.60;95.00;;;;;;6135522;23;20017;-80
2022/08/12 09:34:17;;;;;;;3.38;2.55;;;20.70;95.10;;;;;;6152910;23;20799;-82
2022/08/12 09:37:01;;;;;;;4.47;2.00;;;20.80;94.70;;;;;;6156925;23;20036;-81
2022/08/12 09:39:47;;;;;;;4.05;2.05;;;20.90;94.40;;;;;;6137217;23;20036;-84
2022/08/12 09:45:45;;;;;;;6.43;2.38;;;21.00;94.80;;;;;;6155198;23;20342;-83
2022/08/12 09:48:33;;;;;;;5.60;2.17;;;21.10;94.30;;;;;;6158580;23;20028;-82
2022/08/12 09:51:04;;;;;;;3.75;1.98;;;21.10;92.90;;;;;;6099305;23;20037;-82
2022/08/12 09:53:49;;;;;;;2.67;1.85;;;21.10;93.70;;;;;;6130237;23;20033;-81
2022/08/12 09:56:41;;;;;;;2.25;2.05;;;21.40;94.20;;;;;;6133833;23;20025;-80
2022/08/12 09:59:36;;;;;;;5.22;2.60;;;21.90;93.60;;;;;;6176891;23;20052;-82
2022/08/12 10:02:25;;;;;;;5.00;1.55;;;21.90;93.00;;;;;;6130076;23;20032;-83
2022/08/12 10:05:13;;;;;;;3.83;2.60;;;22.00;92.40;;;;;;6157281;23;20033;-83
2022/08/12 10:07:46;;;;;;;2.17;1.73;;;21.80;93.10;;;;;;6109937;23;20075;-82
2022/08/12 10:10:14;;;;;;;3.13;1.60;;;22.00;93.90;;;;;;6126377;23;20030;-80
2022/08/12 10:16:19;;;;;;;1.50;1.40;;;22.40;91.80;;;;;;6158894;23;20525;-81
2022/08/12 10:18:56;;;;;;;4.30;2.33;;;22.40;90.80;;;;;;6149749;23;20029;-81
2022/08/12 10:21:26;;;;;;;2.38;2.17;;;22.40;91.10;;;;;;6129398;23;20029;-82
2022/08/12 10:24:05;;;;;;;4.10;1.87;;;22.40;90.40;;;;;;6159190;23;20476;-80
2022/08/12 10:29:41;;;;;;;2.38;1.58;;;22.30;91.10;;;;;;6154982;23;20825;-81
2022/08/12 10:32:29;;;;;;;9.27;2.08;;;22.30;90.60;;;;;;6133662;23;20572;-81
2022/08/12 10:35:21;;;;;;;2.00;1.15;;;22.10;90.90;;;;;;6155415;23;20029;-80
2022/08/12 10:38:04;;;;;;;5.57;2.28;;;22.20;90.70;;;;;;6151980;23;20224;-81
2022/08/12 10:43:45;;;;;;;4.47;1.80;;;22.40;91.80;;;;;;6135233;23;20018;-81
2022/08/12 10:46:23;;;;;;;3.92;2.17;;;22.60;91.80;;;;;;6153543;23;20030;-82
2022/08/12 10:48:58;;;;;;;2.10;1.85;;;22.70;89.40;;;;;;6132768;23;20025;-81
2022/08/12 10:51:50;;;;;;;2.75;1.98;;;22.60;90.60;;;;;;6157012;23;20021;-84
2022/08/12 10:54:40;;;;;;;2.70;2.00;;;22.50;90.40;;;;;;6152668;23;20021;-82
2022/08/12 10:57:09;;;;;;;4.75;2.05;;;22.20;91.60;;;;;;6159006;23;20545;-81
2022/08/12 10:59:58;;;;;;;3.50;2.22;;;22.10;92.00;;;;;;6160890;23;20029;-83
2022/08/12 11:02:53;;;;;;;2.13;1.80;;;22.10;91.80;;;;;;6130388;23;20033;-80
2022/08/12 11:05:40;;;;;;;1.90;1.80;;;22.40;92.30;;;;;;6156604;23;20032;-82
2022/08/12 11:08:28;;;;;;;1.88;1.77;;;22.50;91.10;;;;;;6160802;23;20028;-82
2022/08/12 11:11:10;;;;;;;2.00;1.63;;;22.40;91.50;;;;;;6150431;23;20472;-83
2022/08/12 11:13:45;;;;;;;1.70;1.60;;;22.60;91.80;;;;;;6156510;23;20468;-81
2022/08/12 11:16:16;;;;;;;2.88;1.50;;;22.60;92.00;;;;;;6160758;23;20456;-80
2022/08/12 11:18:49;;;;;;;3.08;2.22;;;22.30;91.10;;;;;;6150781;23;20032;-80
2022/08/12 11:21:22;;;;;;;10.05;2.95;;;22.10;92.50;;;;;;6158834;23;20543;-80
2022/08/12 11:24:09;;;;;;;5.65;2.15;;;22.00;91.60;;;;;;6161720;23;20468;-80
2022/08/12 11:26:59;;;;;;;4.55;1.10;;;22.20;91.80;;;;;;6151182;23;20021;-79
2022/08/12 11:29:28;;;;;;;1.90;1.73;;;22.40;90.30;;;;;;6155549;23;20029;-77
2022/08/12 11:32:16;;;;;;;4.15;2.13;;;22.10;90.60;;;;;;6158586;23;20260;-79
2022/08/12 11:34:44;;;;;;;2.72;1.55;;;21.80;90.70;;;;;;6149371;23;20021;-79
2022/08/12 11:37:21;;;;;;;1.63;1.52;;;22.10;91.10;;;;;;6154978;23;20026;-81
2022/08/12 11:39:55;;;;;;;1.60;1.50;;;22.40;89.60;;;;;;6159621;23;20029;-79
2022/08/12 11:42:36;;;;;;;1.60;1.50;;;22.30;90.00;;;;;;6122206;23;20025;-79
2022/08/12 11:45:13;;;;;;;1.23;1.13;;;22.10;90.00;;;;;;6155915;23;20025;-80
2022/08/12 11:47:43;;;;;;;7.93;2.43;;;21.90;90.40;;;;;;6160048;23;20362;-80
2022/08/12 11:50:12;;;;;;;6.85;1.98;;;21.80;90.90;;;;;;6128305;23;20036;-82
2022/08/12 11:52:47;;;;;;;2.13;1.92;;;22.20;90.70;;;;;;6129270;23;20044;-83
2022/08/12 11:55:25;;;;;;;1.73;1.63;;;22.50;89.60;;;;;;6134396;23;20397;-79
2022/08/12 11:57:56;;;;;;;1.70;1.50;;;22.60;88.80;;;;;;6153161;23;20548;-78
2022/08/12 12:00:48;;;;;;;2.53;1.95;;;22.80;90.00;;;;;;6157436;23;20017;-78
2022/08/12 12:03:35;;;;;;;1.38;1.25;;;22.90;89.30;;;;;;6149527;23;20024;-80
2022/08/12 12:06:14;;;;;;;1.42;1.40;;;23.00;87.60;;;;;;6123146;23;20030;-78
2022/08/12 12:08:44;;;;;;;5.90;2.65;;;22.90;88.80;;;;;;6156149;23;20014;-77
2022/08/12 12:11:21;;;;;;;4.60;1.73;;;22.80;86.90;;;;;;6156930;23;20021;-78
2022/08/12 12:13:50;;;;;;;3.67;1.75;;;22.90;90.50;;;;;;6151770;23;20025;-79
2022/08/12 12:16:37;;;;;;;4.13;1.63;;;23.20;90.60;;;;;;6157526;23;20013;-77
2022/08/12 12:19:08;;;;;;;1.67;1.50;;;23.40;87.90;;;;;;6146613;23;20341;-78
2022/08/12 12:21:38;;;;;;;1.77;1.65;;;23.40;88.30;;;;;;6152983;23;20040;-78
2022/08/12 12:24:18;;;;;;;3.28;1.50;;;23.30;89.00;;;;;;6157841;23;20025;-78
2022/08/12 12:26:52;;;;;;;1.10;1.00;;;23.40;90.30;;;;;;6149075;23;20036;-78
2022/08/12 12:29:30;;;;;;;1.60;1.50;;;23.30;87.10;;;;;;6154040;23;20033;-78
2022/08/12 12:32:18;;;;;;;1.27;1.17;;;23.10;89.00;;;;;;6157585;23;20029;-78
2022/08/12 12:34:55;;;;;;;1.45;1.35;;;22.70;89.10;;;;;;6143773;23;20480;-77
2022/08/12 12:37:57;;;;;;;3.88;1.58;;;22.30;89.90;;;;;;6150906;23;20530;-78
2022/08/12 12:40:33;;;;;;;1.40;1.30;;;22.00;90.10;;;;;;6157220;23;20032;-78
2022/08/12 12:43:03;;;;;;;1.77;1.25;;;21.90;90.60;;;;;;6148324;23;20341;-86
2022/08/12 12:45:36;;;;;;;1.15;1.13;;;21.80;90.00;;;;;;6128173;23;20032;-79
2022/08/12 12:48:12;;;;;;;1.05;0.98;;;21.60;90.10;;;;;;6157652;23;20025;-79
2022/08/12 12:53:42;;;;;;;1.38;1.10;;;21.90;90.30;;;;;;6153381;23;20029;-77
2022/08/12 12:56:30;;;;;;;1.42;1.30;;;21.90;90.10;;;;;;6157523;23;20636;-78
2022/08/12 12:59:04;;;;;;;1.23;1.00;;;21.70;90.00;;;;;;6146632;23;20044;-78
2022/08/12 13:01:33;;;;;;;1.02;0.95;;;21.50;89.30;;;;;;6153095;23;20409;-78
2022/08/12 13:04:10;;;;;;;8.38;1.08;;;21.50;90.30;;;;;;6156240;23;20017;-78
2022/08/12 13:06:40;;;;;;;2.25;0.90;;;21.40;90.80;;;;;;6147480;23;20036;-78
2022/08/12 13:09:11;;;;;;;1.90;1.80;;;21.30;89.90;;;;;;6153943;23;20026;-78
2022/08/12 13:11:39;;;;;;;1.55;1.45;;;21.20;90.40;;;;;;6157115;23;20334;-78
2022/08/12 13:14:12;;;;;;;0.98;0.93;;;21.50;91.30;;;;;;6150084;23;20025;-78
2022/08/12 13:16:59;;;;;;;1.50;1.40;;;22.00;88.60;;;;;;6155220;23;20687;-78
2022/08/12 13:19:30;;;;;;;1.60;1.48;;;22.50;88.30;;;;;;6156509;23;20334;-78
2022/08/12 13:22:18;;;;;;;1.33;1.23;;;22.80;88.90;;;;;;6150091;23;20040;-81
2022/08/12 13:24:53;;;;;;;6.50;1.55;;;23.10;86.20;;;;;;6157852;23;20060;-79
2022/08/12 13:27:35;;;;;;;1.48;1.35;;;23.10;85.00;;;;;;6154920;23;20021;-78
2022/08/12 13:30:08;;;;;;;0.80;0.80;;;23.00;86.00;;;;;;6151068;23;20393;-78
2022/08/12 13:32:40;;;;;;;1.98;1.80;;;22.80;85.00;;;;;;6157549;23;20017;-79
2022/08/12 13:35:08;;;;;;;1.08;0.98;;;22.50;84.40;;;;;;6146765;23;20683;-78
2022/08/12 13:37:54;;;;;;;0.90;0.90;;;22.10;85.50;;;;;;6151362;23;20480;-77
2022/08/12 13:40:25;;;;;;;5.68;1.45;;;22.00;87.00;;;;;;6156300;23;20348;-78
2022/08/12 13:42:57;;;;;;;1.95;1.38;;;22.20;86.20;;;;;;6147572;23;20048;-78
2022/08/12 13:45:27;;;;;;;1.00;0.90;;;22.60;85.00;;;;;;6153430;23;20456;-78
2022/08/12 13:48:02;;;;;;;1.27;1.17;;;22.80;86.00;;;;;;6156710;23;20028;-78
2022/08/12 13:50:37;;;;;;;1.13;1.02;;;23.10;84.80;;;;;;6148717;23;20239;-78
2022/08/12 13:53:10;;;;;;;11.07;1.17;;;23.40;84.00;;;;;;6147510;23;20033;-78
2022/08/12 13:55:53;;;;;;;4.40;1.50;;;23.50;85.50;;;;;;6157324;23;20017;-77
2022/08/12 13:58:29;;;;;;;1.25;1.08;;;23.60;84.50;;;;;;6122564;23;20033;-77
2022/08/12 14:01:04;;;;;;;1.38;1.10;;;23.40;83.90;;;;;;6127418;23;20033;-78
2022/08/12 14:03:32;;;;;;;7.05;1.30;;;23.00;85.50;;;;;;6156415;23;20452;-78
2022/08/12 14:06:19;;;;;;;0.98;0.98;;;22.60;86.90;;;;;;6127589;23;20029;-77
2022/08/12 14:08:47;;;;;;;4.13;1.00;;;22.30;86.70;;;;;;6128008;23;20013;-77
2022/08/12 14:11:18;;;;;;;1.00;1.00;;;22.20;86.90;;;;;;6156304;23;20017;-77
2022/08/12 14:13:51;;;;;;;3.70;1.10;;;22.20;88.50;;;;;;6150993;23;20029;-78
2022/08/12 14:16:37;;;;;;;2.13;1.30;;;22.10;87.00;;;;;;6156406;23;20022;-78
2022/08/12 14:19:15;;;;;;;2.15;1.70;;;22.20;86.90;;;;;;6152277;23;20033;-78
2022/08/12 14:21:52;;;;;;;1.10;1.00;;;22.40;87.30;;;;;;6150060;23;20035;-79
2022/08/12 14:24:36;;;;;;;0.63;0.63;;;22.60;87.30;;;;;;6156859;23;20021;-78
2022/08/12 14:27:09;;;;;;;0.85;0.85;;;22.50;86.20;;;;;;6146281;23;20365;-78
2022/08/12 14:29:45;;;;;;;0.63;0.60;;;22.40;88.00;;;;;;6152691;23;20759;-78
2022/08/12 14:32:35;;;;;;;0.77;0.77;;;22.30;87.70;;;;;;6156649;23;20021;-79
2022/08/12 14:35:06;;;;;;;1.35;0.98;;;22.30;87.20;;;;;;6146770;23;20025;-78
2022/08/12 14:37:37;;;;;;;0.85;0.85;;;22.30;88.60;;;;;;6152320;23;20032;-78
2022/08/12 14:40:29;;;;;;;1.35;1.00;;;22.40;88.10;;;;;;6156830;23;20013;-80
2022/08/12 14:42:57;;;;;;;2.50;1.08;;;22.40;88.20;;;;;;6120731;23;20029;-77
2022/08/12 14:45:26;;;;;;;1.75;1.65;;;22.30;87.60;;;;;;6153815;23;20033;-80
2022/08/12 14:48:18;;;;;;;1.30;1.20;;;22.30;88.40;;;;;;6157296;23;20023;-80
2022/08/12 14:50:50;;;;;;;2.75;1.40;;;22.20;88.00;;;;;;6149235;23;20803;-82
2022/08/12 14:53:40;;;;;;;0.82;0.82;;;22.00;88.60;;;;;;6127802;23;20029;-82
2022/08/12 14:56:28;;;;;;;1.88;1.15;;;21.90;89.00;;;;;;6126277;23;20814;-80
2022/08/12 15:02:27;;;;;;;12.25;3.53;;;21.80;89.00;;;;;;6121249;23;20021;-79
2022/08/12 15:04:57;;;;;;;2.17;1.00;;;21.80;89.70;;;;;;6153610;23;20017;-79
2022/08/12 15:07:27;;;;;;;2.05;1.42;;;22.00;87.30;;;;;;6133218;23;20017;-88
2022/08/12 15:10:19;;;;;;;0.70;0.70;;;22.50;91.50;;;;;;6152131;23;20025;-87
2022/08/12 15:13:06;;;;;;;12.13;1.42;;;23.20;88.40;;;;;;6111334;23;20018;-83
2022/08/12 15:15:37;;;;;;;3.20;1.08;;;23.20;84.50;;;;;;6134835;23;20025;-87
2022/08/12 15:18:15;;;;;;;1.77;1.25;;;22.80;85.00;;;;;;6122853;23;20022;-79
2022/08/12 15:20:50;;;;;;;1.25;0.70;;;22.60;84.50;;;;;;6106233;23;20010;-80
2022/08/12 15:23:19;;;;;;;7.15;2.45;;;22.40;86.70;;;;;;6120871;23;20021;-81
2022/08/12 15:25:50;;;;;;;0.82;0.82;;;22.30;85.20;;;;;;6152780;23;20033;-79
2022/08/12 15:28:34;;;;;;;3.65;1.13;;;22.10;87.10;;;;;;6135118;23;20021;-79
2022/08/12 15:31:05;;;;;;;6.97;1.20;;;22.00;86.00;;;;;;6122737;23;20044;-80